Time;durP1;ratioP1;P1;durP2;ratioP2;P2;SDS_P1;SDS_P2;PMS_P1;PMS_P2;Temp;Humidity;BMP_temperature;BMP_pressure;BME280_temperature;BME280_humidity;BME280_pressure;Samples;Min_cycle;Max_cycle;Signal;HPM_P1;HPM_P2
2023/05/20 00:01:27;;;;;;;6.28;3.95;;;;;;;14.24;91.55;100193.09;5080286;28;20016;-60
2023/05/20 00:03:53;;;;;;;8.10;4.20;;;;;;;14.28;91.27;100208.13;5088841;28;20102;-60
2023/05/20 00:06:18;;;;;;;8.25;4.60;;;;;;;14.33;91.70;100203.44;5088931;28;20027;-61
2023/05/20 00:08:44;;;;;;;8.23;5.18;;;;;;;14.35;91.76;100204.22;5086189;28;20073;-60
2023/05/20 00:11:09;;;;;;;6.60;3.97;;;;;;;14.39;91.69;100204.03;5085276;28;20099;-60
2023/05/20 00:13:34;;;;;;;7.50;3.88;;;;;;;14.47;92.49;100203.69;5067536;28;20033;-60
2023/05/20 00:16:00;;;;;;;7.00;4.63;;;;;;;14.46;92.91;100193.94;5081832;28;20024;-60
2023/05/20 00:18:26;;;;;;;7.45;4.72;;;;;;;14.58;92.39;100206.72;5087083;28;20031;-60
2023/05/20 00:20:53;;;;;;;6.55;4.15;;;;;;;14.66;92.45;100204.59;5086707;28;20103;-60
2023/05/20 00:23:18;;;;;;;7.25;4.43;;;;;;;14.73;92.20;100197.16;5089243;28;20111;-60
2023/05/20 00:25:44;;;;;;;7.88;4.32;;;;;;;14.77;91.79;100193.38;5087761;28;20107;-61
2023/05/20 00:28:09;;;;;;;10.32;5.13;;;;;;;14.83;92.35;100191.28;5086875;28;20799;-61
2023/05/20 00:30:34;;;;;;;8.48;4.68;;;;;;;14.86;92.06;100191.13;5087820;28;20115;-60
2023/05/20 00:33:00;;;;;;;10.20;5.38;;;;;;;14.89;91.36;100185.63;5087048;28;20028;-61
2023/05/20 00:35:25;;;;;;;7.00;4.35;;;;;;;14.97;92.08;100183.47;5087940;28;20036;-61
2023/05/20 00:37:51;;;;;;;8.45;4.85;;;;;;;15.01;91.42;100185.03;5087274;28;20058;-61
2023/05/20 00:40:16;;;;;;;7.53;4.05;;;;;;;15.05;91.24;100192.00;5087888;28;20531;-61
2023/05/20 00:42:42;;;;;;;9.52;4.90;;;;;;;15.10;90.78;100189.09;5087736;28;20024;-61
2023/05/20 00:45:08;;;;;;;7.57;4.00;;;;;;;15.12;90.29;100187.22;5078998;28;20033;-61
2023/05/20 00:47:35;;;;;;;9.95;4.70;;;;;;;15.16;90.60;100189.66;5077160;28;20028;-61
2023/05/20 00:50:02;;;;;;;6.07;4.07;;;;;;;15.15;89.94;100185.25;5086871;28;20102;-61
2023/05/20 00:52:32;;;;;;;6.88;4.93;;;;;;;15.25;88.63;100189.25;5086774;28;20040;-61
2023/05/20 00:54:58;;;;;;;7.70;4.95;;;;;;;15.27;88.57;100186.47;5087151;28;20020;-61
2023/05/20 00:57:24;;;;;;;9.52;5.40;;;;;;;15.27;88.00;100184.66;5088056;28;20039;-61
2023/05/20 00:59:50;;;;;;;8.85;4.72;;;;;;;15.32;87.80;100184.44;5088264;28;20385;-61
2023/05/20 01:02:15;;;;;;;5.63;4.30;;;;;;;15.33;87.82;100180.81;5075767;28;20036;-61
2023/05/20 01:04:45;;;;;;;8.30;4.75;;;;;;;15.34;87.62;100183.41;5067841;28;20072;-61
2023/05/20 01:07:13;;;;;;;6.55;4.75;;;;;;;15.37;87.11;100183.25;5067925;28;20365;-61
2023/05/20 01:09:39;;;;;;;7.22;4.25;;;;;;;15.38;86.53;100179.66;5071382;28;20751;-61
2023/05/20 01:12:15;;;;;;;6.22;4.90;;;;;;;15.34;86.41;100183.41;5070368;28;20024;-61
2023/05/20 01:15:02;;;;;;;8.68;5.05;;;;;;;15.38;86.65;100190.38;5068045;28;20028;-61
2023/05/20 01:17:31;;;;;;;8.35;4.90;;;;;;;15.40;87.15;100174.25;5071972;28;20032;-61
2023/05/20 01:19:58;;;;;;;8.98;5.47;;;;;;;15.39;86.15;100183.22;5071247;28;20032;-61
2023/05/20 01:22:28;;;;;;;9.32;5.25;;;;;;;15.39;85.51;100178.72;5071753;28;20020;-60
2023/05/20 01:24:53;;;;;;;7.60;4.68;;;;;;;15.39;85.15;100188.56;5071642;28;20039;-61
2023/05/20 01:27:21;;;;;;;7.35;4.93;;;;;;;15.39;85.27;100184.09;5070572;28;20029;-61
2023/05/20 01:29:50;;;;;;;12.82;5.25;;;;;;;15.40;85.21;100183.13;5070424;28;20370;-61
2023/05/20 01:32:26;;;;;;;7.85;4.07;;;;;;;15.42;83.88;100172.34;5070323;28;20035;-61
2023/05/20 01:34:52;;;;;;;5.85;4.50;;;;;;;15.33;84.20;100162.94;5069335;28;20370;-61
2023/05/20 01:37:18;;;;;;;7.13;4.65;;;;;;;15.41;84.04;100178.66;5070475;28;20073;-61
2023/05/20 01:39:46;;;;;;;6.82;4.63;;;;;;;15.32;84.55;100169.22;5070497;28;20385;-61
2023/05/20 01:42:14;;;;;;;7.90;4.57;;;;;;;15.32;84.14;100179.94;5073528;28;20056;-61
2023/05/20 01:44:40;;;;;;;8.30;4.80;;;;;;;15.29;84.46;100166.69;5075760;28;20455;-61
2023/05/20 01:47:06;;;;;;;7.78;4.15;;;;;;;15.30;84.07;100176.47;5090985;28;20055;-61
2023/05/20 01:49:31;;;;;;;8.15;4.85;;;;;;;15.36;83.66;100170.81;5078403;28;20759;-60
2023/05/20 01:51:57;;;;;;;5.90;4.40;;;;;;;15.37;84.14;100163.66;5081144;28;20084;-61
2023/05/20 01:54:22;;;;;;;6.40;4.25;;;;;;;15.36;83.93;100153.84;5090411;28;20031;-60
2023/05/20 01:56:49;;;;;;;6.25;4.43;;;;;;;15.34;84.39;100150.38;5068635;28;20107;-61
2023/05/20 01:59:14;;;;;;;6.72;4.32;;;;;;;15.36;83.46;100144.00;5074157;28;20044;-61
2023/05/20 02:01:42;;;;;;;6.68;3.90;;;;;;;15.32;83.63;100137.03;5070487;28;20408;-61
2023/05/20 02:04:07;;;;;;;9.02;4.30;;;;;;;15.34;82.88;100145.00;5070717;28;20033;-61
2023/05/20 02:06:33;;;;;;;6.05;3.47;;;;;;;15.37;82.06;100139.53;5071689;28;20055;-61
2023/05/20 02:08:58;;;;;;;6.45;3.72;;;;;;;15.36;82.11;100133.28;5071498;28;20031;-61
2023/05/20 02:11:23;;;;;;;6.35;3.58;;;;;;;15.40;80.97;100134.88;5070416;28;20035;-61
2023/05/20 02:13:50;;;;;;;8.00;3.75;;;;;;;15.39;81.57;100125.13;5057755;28;20033;-61
2023/05/20 02:16:15;;;;;;;5.63;4.00;;;;;;;15.40;81.04;100118.78;5059237;28;20780;-61
2023/05/20 02:18:41;;;;;;;7.05;3.42;;;;;;;15.37;80.27;100124.28;5070172;28;20137;-61
2023/05/20 02:21:06;;;;;;;5.05;3.72;;;;;;;15.33;80.89;100117.38;5070112;28;20024;-61
2023/05/20 02:23:32;;;;;;;5.43;3.50;;;;;;;15.31;81.11;100119.25;5070318;28;20060;-60
2023/05/20 02:25:58;;;;;;;5.38;3.55;;;;;;;15.29;81.08;100114.88;5069066;28;20111;-60
2023/05/20 02:28:23;;;;;;;5.75;3.80;;;;;;;15.26;80.89;100120.41;5069600;28;20465;-61
2023/05/20 02:30:52;;;;;;;7.18;3.53;;;;;;;15.23;81.41;100115.22;5070562;28;20033;-61
2023/05/20 02:33:17;;;;;;;;;;;;;;;15.18;81.68;100117.25;5057239;28;20485;-61
2023/05/20 02:35:43;;;;;;;;;;;;;;;15.16;82.21;100125.34;5071242;28;19915;-61
2023/05/20 02:38:08;;;;;;;;;;;;;;;15.14;82.33;100118.34;5071116;28;19923;-60
2023/05/20 02:40:33;;;;;;;;;;;;;;;15.10;82.87;100116.75;5070396;28;19916;-61
2023/05/20 02:42:59;;;;;;;;;;;;;;;15.08;82.35;100114.16;5069403;28;19981;-60
2023/05/20 02:45:24;;;;;;;;;;;;;;;15.04;83.08;100117.91;5069759;28;19923;-60
2023/05/20 02:47:50;;;;;;;;;;;;;;;15.02;82.53;100117.16;5069710;28;20323;-61
2023/05/20 02:50:15;;;;;;;;;;;;;;;15.01;82.82;100114.50;5068148;28;19915;-61
2023/05/20 02:52:41;;;;;;;;;;;;;;;14.94;83.26;100113.94;5068666;28;19916;-61
2023/05/20 02:55:06;;;;;;;;;;;;;;;14.92;83.59;100115.84;5066027;28;19950;-62
2023/05/20 02:57:33;;;;;;;;;;;;;;;14.92;83.39;100115.84;5060932;28;19921;-61
2023/05/20 02:59:59;;;;;;;;;;;;;;;14.90;83.17;100112.38;5069505;28;19931;-61
2023/05/20 03:02:24;;;;;;;;;;;;;;;14.87;84.16;100115.22;5069617;28;19916;-61
2023/05/20 03:04:52;;;;;;;;;;;;;;;14.80;83.47;100111.09;5070724;28;19919;-61
2023/05/20 03:07:20;;;;;;;;;;;;;;;14.79;83.50;100112.03;5068639;28;19920;-61
2023/05/20 03:09:45;;;;;;;;;;;;;;;14.88;84.05;100110.69;5069209;28;20011;-61
2023/05/20 03:12:10;;;;;;;;;;;;;;;14.90;84.10;100111.50;5069499;28;20358;-61
2023/05/20 03:14:36;;;;;;;;;;;;;;;14.91;84.07;100116.78;5061445;28;19913;-61
2023/05/20 03:17:01;;;;;;;;;;;;;;;14.92;83.72;100114.97;5050359;28;19922;-61
2023/05/20 03:19:26;;;;;;;;;;;;;;;14.92;83.33;100118.53;5060815;28;20342;-61
2023/05/20 03:21:52;;;;;;;;;;;;;;;15.01;83.64;100119.88;5059122;28;19962;-61
2023/05/20 03:24:17;;;;;;;;;;;;;;;15.00;82.67;100124.38;5070230;28;20464;-61
2023/05/20 03:26:42;;;;;;;;;;;;;;;15.04;83.07;100125.94;5069217;28;19908;-61
2023/05/20 03:29:08;;;;;;;;;;;;;;;15.09;83.20;100115.88;5069823;28;20236;-61
2023/05/20 03:31:34;;;;;;;;;;;;;;;15.10;82.58;100119.44;5069854;28;19909;-60
2023/05/20 03:33:59;;;;;;;;;;;;;;;15.18;82.18;100117.25;5069302;28;20376;-61
2023/05/20 03:36:24;;;;;;;;;;;;;;;15.21;82.44;100115.28;5069398;28;20007;-61
2023/05/20 03:38:50;;;;;;;;;;;;;;;15.22;81.44;100114.31;5068881;28;19916;-61
2023/05/20 03:41:15;;;;;;;;;;;;;;;15.20;81.30;100115.38;5069861;28;20429;-61
2023/05/20 03:43:40;;;;;;;;;;;;;;;15.31;80.74;100124.59;5069672;28;19943;-61
2023/05/20 03:46:06;;;;;;;;;;;;;;;15.33;81.66;100122.72;5068535;28;21231;-61
2023/05/20 03:48:31;;;;;;;;;;;;;;;15.39;80.55;100117.06;5069244;28;19920;-62
2023/05/20 03:50:56;;;;;;;;;;;;;;;15.43;80.69;100124.03;5068454;28;19909;-61
2023/05/20 03:53:21;;;;;;;;;;;;;;;15.41;79.88;100128.59;5069591;28;20015;-62
2023/05/20 03:55:47;;;;;;;;;;;;;;;15.45;80.63;100127.47;5069578;28;20232;-61
2023/05/20 03:58:14;;;;;;;;;;;;;;;15.43;78.71;100128.50;5052520;28;20794;-61
2023/05/20 04:00:39;;;;;;;;;;;;;;;15.48;78.59;100132.72;5049515;28;19920;-61
2023/05/20 04:03:05;;;;;;;;;;;;;;;15.51;77.28;100129.88;5066048;28;20462;-61
2023/05/20 04:05:31;;;;;;;;;;;;;;;15.51;77.36;100135.22;5049815;28;19908;-61
2023/05/20 04:07:56;;;;;;;;;;;;;;;15.56;76.26;100135.88;5069034;28;20035;-61
2023/05/20 04:10:21;;;;;;;;;;;;;;;15.57;76.15;100134.91;5064855;28;20364;-61
2023/05/20 04:12:47;;;;;;;;;;;;;;;15.61;76.19;100136.50;5069447;28;19913;-61
2023/05/20 04:15:12;;;;;;;;;;;;;;;15.61;76.01;100133.81;5068337;28;19916;-62
2023/05/20 04:17:39;;;;;;;;;;;;;;;15.60;76.79;100132.06;5069535;28;20018;-62
2023/05/20 04:20:06;;;;;;;;;;;;;;;15.60;75.68;100129.38;5070124;28;19912;-62
2023/05/20 04:22:33;;;;;;;;;;;;;;;15.64;75.84;100122.94;5069509;28;19999;-62
2023/05/20 04:24:58;;;;;;;;;;;;;;;15.63;75.91;100131.91;5069634;28;20252;-61
2023/05/20 04:27:24;;;;;;;;;;;;;;;15.68;75.58;100140.56;5069063;28;19913;-61
2023/05/20 04:29:51;;;;;;;;;;;;;;;15.66;75.27;100136.25;5069642;28;19912;-62
2023/05/20 04:32:17;;;;;;;;;;;;;;;15.60;75.57;100126.69;5068245;28;20002;-61
2023/05/20 04:34:43;;;;;;;;;;;;;;;15.59;73.99;100124.97;5068304;28;19916;-61
2023/05/20 04:37:09;;;;;;;;;;;;;;;15.66;75.59;100121.03;5068401;28;19916;-61
2023/05/20 04:39:35;;;;;;;;;;;;;;;15.67;74.78;100117.41;5066906;28;19981;-61
2023/05/20 04:42:01;;;;;;;;;;;;;;;15.61;74.45;100116.84;5069543;28;19912;-61
2023/05/20 04:44:27;;;;;;;;;;;;;;;15.66;73.99;100110.31;5072317;28;19931;-62
2023/05/20 04:46:52;;;;;;;;;;;;;;;15.71;74.60;100102.03;5072912;28;19912;-61
2023/05/20 04:49:17;;;;;;;;;;;;;;;15.73;73.27;100100.97;5068013;28;19919;-61
2023/05/20 04:51:43;;;;;;;;;;;;;;;15.82;73.42;100110.38;5065604;28;19923;-61
2023/05/20 04:54:08;;;;;;;;;;;;;;;15.84;74.23;100097.75;5072626;28;19914;-61
2023/05/20 04:56:35;;;;;;;;;;;;;;;15.78;72.07;100106.97;5071907;28;19912;-62
2023/05/20 04:59:00;;;;;;;;;;;;;;;15.62;73.21;100110.53;5072657;28;20003;-61
2023/05/20 05:01:26;;;;;;;;;;;;;;;15.58;72.44;100104.44;5071783;28;20019;-61
2023/05/20 05:03:51;;;;;;;;;;;;;;;15.54;73.64;100108.25;5072212;28;20296;-62
2023/05/20 05:06:17;;;;;;;;;;;;;;;15.46;74.14;100105.09;5071516;28;19912;-61
2023/05/20 05:08:42;;;;;;;;;;;;;;;15.40;75.59;100104.56;5071669;28;19912;-61
2023/05/20 05:11:07;;;;;;;;;;;;;;;15.44;75.21;100112.34;5072695;28;19916;-62
2023/05/20 05:13:32;;;;;;;;;;;;;;;15.47;75.73;100103.28;5071637;28;20335;-62
2023/05/20 05:15:58;;;;;;;;;;;;;;;15.48;75.86;100111.25;5072591;28;19951;-61
2023/05/20 05:18:23;;;;;;;;;;;;;;;15.51;75.76;100111.09;5071661;28;20223;-62
2023/05/20 05:20:49;;;;;;;;;;;;;;;15.63;75.82;100107.75;5071346;28;20586;-61
2023/05/20 05:23:14;;;;;;;;;;;;;;;15.66;74.69;100110.31;5071512;28;20300;-62
2023/05/20 05:25:39;;;;;;;;;;;;;;;15.81;75.15;100108.66;5070557;28;19962;-62
2023/05/20 05:28:05;;;;;;;;;;;;;;;15.89;74.34;100105.56;5071714;28;19919;-61
2023/05/20 05:30:30;;;;;;;;;;;;;;;16.09;75.91;100097.31;5071092;28;19935;-62
2023/05/20 05:32:55;;;;;;;;;;;;;;;16.03;73.68;100097.66;5071799;28;19913;-62
2023/05/20 05:35:20;;;;;;;;;;;;;;;16.18;73.44;100091.44;5072203;28;19912;-62
2023/05/20 05:37:46;;;;;;;;;;;;;;;16.45;72.90;100093.53;5071316;28;19912;-61
2023/05/20 05:40:11;;;;;;;;;;;;;;;16.59;72.27;100099.00;5072175;28;19958;-62
2023/05/20 05:42:36;;;;;;;;;;;;;;;16.73;71.51;100103.59;5070986;28;19916;-61
2023/05/20 05:45:02;;;;;;;;;;;;;;;16.81;70.19;100109.41;5071941;28;19990;-61
2023/05/20 05:47:31;;;;;;;;;;;;;;;16.94;71.34;100114.00;5072349;28;19916;-62
2023/05/20 05:49:56;;;;;;;;;;;;;;;16.93;70.16;100103.34;5070373;28;19916;-61
2023/05/20 05:52:21;;;;;;;;;;;;;;;17.17;70.02;100096.53;5071535;28;20268;-62
2023/05/20 05:54:47;;;;;;;;;;;;;;;17.20;70.74;100095.53;5060518;28;19920;-62
2023/05/20 05:57:12;;;;;;;;;;;;;;;17.37;70.26;100096.25;5071700;28;20387;-61
2023/05/20 05:59:37;;;;;;;;;;;;;;;17.61;70.85;100097.50;5071426;28;19985;-62
2023/05/20 06:02:03;;;;;;;;;;;;;;;17.65;68.83;100103.56;5050461;28;19966;-61
2023/05/20 06:04:28;;;;;;;;;;;;;;;17.74;68.59;100103.88;5030733;28;19935;-62
2023/05/20 06:06:53;;;;;;;;;;;;;;;17.82;68.60;100098.94;5044621;28;20371;-61
2023/05/20 06:09:18;;;;;;;;;;;;;;;17.91;68.22;100101.03;5049189;28;19919;-61
2023/05/20 06:11:44;;;;;;;;;;;;;;;18.07;66.95;100096.44;5069509;28;19908;-61
2023/05/20 06:14:09;;;;;;;;;;;;;;;18.13;66.68;100093.38;5051742;28;19916;-61
2023/05/20 06:16:35;;;;;;;;;;;;;;;18.26;68.18;100097.03;5035991;28;19913;-61
2023/05/20 06:19:00;;;;;;;;;;;;;;;18.12;66.89;100091.63;5030063;28;20280;-61
2023/05/20 06:21:25;;;;;;;;;;;;;;;18.22;67.27;100090.09;5031214;28;19913;-61
2023/05/20 06:23:51;;;;;;;;;;;;;;;18.46;66.61;100097.63;5035072;28;19916;-60
2023/05/20 06:26:16;;;;;;;;;;;;;;;18.54;66.98;100089.94;5051181;28;19916;-61
2023/05/20 06:28:41;;;;;;;;;;;;;;;18.49;65.93;100094.75;5051493;28;19967;-61
2023/05/20 06:31:07;;;;;;;;;;;;;;;18.46;66.27;100093.13;5040702;28;19916;-60
2023/05/20 06:33:33;;;;;;;;;;;;;;;18.49;66.25;100092.06;5030969;28;19912;-60
2023/05/20 06:36:00;;;;;;;;;;;;;;;18.48;65.26;100082.25;5031134;28;20035;-60
2023/05/20 06:38:25;;;;;;;;;;;;;;;18.52;67.13;100081.09;5033290;28;19913;-61
2023/05/20 06:40:51;;;;;;;;;;;;;;;18.61;66.56;100085.88;5052074;28;20276;-60
2023/05/20 06:43:16;;;;;;;;;;;;;;;18.80;66.72;100079.22;5050989;28;19917;-60
2023/05/20 06:45:41;;;;;;;;;;;;;;;18.91;64.51;100081.22;5044444;28;19972;-61
2023/05/20 06:48:07;;;;;;;;;;;;;;;18.99;63.97;100084.28;5044595;28;19916;-61
2023/05/20 06:50:32;;;;;;;;;;;;;;;19.05;64.20;100086.56;5046929;28;19917;-61
2023/05/20 06:52:58;;;;;;;;;;;;;;;19.22;64.98;100089.00;5050917;28;19916;-60
2023/05/20 06:55:23;;;;;;;;;;;;;;;19.26;64.34;100087.81;5055357;28;20307;-61
2023/05/20 06:57:48;;;;;;;;;;;;;;;19.49;64.83;100092.56;5054908;28;19920;-60
2023/05/20 07:00:13;;;;;;;;;;;;;;;19.73;64.88;100090.91;5053843;28;19921;-61
2023/05/20 07:02:39;;;;;;;;;;;;;;;19.84;63.08;100098.25;5066221;28;19924;-61
2023/05/20 07:05:04;;;;;;;;;;;;;;;20.01;63.14;100093.44;5060500;28;19916;-61
2023/05/20 07:07:30;;;;;;;;;;;;;;;20.14;61.73;100077.22;5059010;28;19905;-62
2023/05/20 07:09:56;;;;;;;;;;;;;;;20.45;62.53;100072.25;5064043;28;20343;-61
2023/05/20 07:12:21;;;;;;;;;;;;;;;20.49;61.60;100079.16;5065753;28;20002;-62
2023/05/20 07:14:46;;;;;;;;;;;;;;;20.46;59.11;100068.56;5058848;28;19995;-61
2023/05/20 07:17:12;;;;;;;;;;;;;;;20.76;61.86;100065.47;5065748;28;19912;-61
2023/05/20 07:19:37;;;;;;;;;;;;;;;20.93;59.02;100054.28;5058677;28;19913;-61
2023/05/20 07:22:02;;;;;;;;;;;;;;;20.79;60.71;100052.59;5062260;28;20005;-62
2023/05/20 07:24:27;;;;;;;;;;;;;;;20.87;61.05;100055.59;5051190;28;19973;-61
2023/05/20 07:26:53;;;;;;;;;;;;;;;20.90;57.91;100044.53;5068717;28;19912;-62
2023/05/20 07:29:18;;;;;;;;;;;;;;;21.00;58.16;100049.31;5069396;28;20364;-61
2023/05/20 07:31:43;;;;;;;;;;;;;;;21.19;59.61;100044.22;5058824;28;19923;-62
2023/05/20 07:34:09;;;;;;;;;;;;;;;21.51;59.16;100053.50;5050314;28;20557;-62
2023/05/20 07:36:34;;;;;;;;;;;;;;;21.55;57.13;100041.41;5061364;28;19912;-62
2023/05/20 07:39:00;;;;;;;;;;;;;;;21.97;58.00;100051.69;5052813;28;20046;-62
2023/05/20 07:41:25;;;;;;;;;;;;;;;22.19;55.58;100044.44;5054606;28;19916;-62
2023/05/20 07:43:50;;;;;;;;;;;;;;;22.12;55.83;100028.78;5059616;28;19918;-62
2023/05/20 07:46:15;;;;;;;;;;;;;;;22.40;55.59;100030.16;5050694;28;19909;-62
2023/05/20 07:48:41;;;;;;;;;;;;;;;22.54;54.40;100033.50;5060250;28;19942;-62
2023/05/20 07:51:06;;;;;;;;;;;;;;;22.58;54.63;100025.97;5065951;28;19919;-62
2023/05/20 07:53:32;;;;;;;;;;;;;;;22.80;54.41;100032.22;5063556;28;19959;-62
2023/05/20 07:55:57;;;;;;;;;;;;;;;22.84;54.29;100028.28;5056681;28;19912;-62
2023/05/20 07:58:23;;;;;;;;;;;;;;;22.72;53.76;100031.09;5066212;28;20035;-62
2023/05/20 08:00:48;;;;;;;;;;;;;;;23.05;53.34;100028.31;5063507;28;19924;-62
2023/05/20 08:03:13;;;;;;;;;;;;;;;23.12;52.51;100034.97;5064031;28;19969;-62
2023/05/20 08:05:40;;;;;;;;;;;;;;;23.20;51.52;100019.78;5054226;28;20427;-62
2023/05/20 08:08:05;;;;;;;;;;;;;;;23.12;51.58;100019.56;5048884;28;19973;-62
2023/05/20 08:10:30;;;;;;;;;;;;;;;23.51;52.50;100019.91;5058026;28;20367;-62
2023/05/20 08:12:56;;;;;;;;;;;;;;;23.41;51.59;100019.81;5066772;28;20380;-62
2023/05/20 08:15:21;;;;;;;;;;;;;;;23.49;52.52;100009.19;5066206;28;20285;-62
2023/05/20 08:17:46;;;;;;;;;;;;;;;23.42;51.77;100008.84;5066402;28;19920;-64
2023/05/20 08:20:12;;;;;;;;;;;;;;;23.65;51.96;100012.31;5064054;28;19923;-62
2023/05/20 08:22:37;;;;;;;;;;;;;;;23.90;52.09;100002.88;5070868;28;20705;-62
2023/05/20 08:25:02;;;;;;;;;;;;;;;23.92;52.44;100003.63;5062754;28;19917;-63
2023/05/20 08:27:28;;;;;;;;;;;;;;;24.13;51.56;99999.03;5067387;28;19942;-63
2023/05/20 08:29:53;;;;;;;;;;;;;;;24.67;51.54;100002.25;5071508;28;19916;-63
2023/05/20 08:32:18;;;;;;;;;;;;;;;24.65;48.50;99999.66;5065725;28;20356;-63
2023/05/20 08:34:44;;;;;;;;;;;;;;;24.52;49.43;99988.19;5052758;28;19939;-63
2023/05/20 08:37:09;;;;;;;;;;;;;;;24.57;48.52;99995.91;5059079;28;19912;-63
2023/05/20 08:39:34;;;;;;;;;;;;;;;24.96;50.28;99997.75;5066276;28;20350;-63
2023/05/20 08:42:00;;;;;;;;;;;;;;;25.29;49.28;99993.75;5062692;28;20411;-64
2023/05/20 08:44:26;;;;;;;;;;;;;;;25.49;49.07;99990.06;5066761;28;19913;-63
2023/05/20 08:46:53;;;;;;;;;;;;;;;25.77;48.06;99987.28;5060535;28;19923;-63
2023/05/20 08:49:18;;;;;;;;;;;;;;;25.65;46.69;99979.44;5069501;28;19912;-63
2023/05/20 08:51:45;;;;;;;;;;;;;;;25.70;47.68;99988.88;5070121;28;20352;-62
2023/05/20 08:54:11;;;;;;;;;;;;;;;25.85;46.50;99981.09;5068275;28;20364;-63
2023/05/20 08:56:38;;;;;;;;;;;;;;;26.13;47.04;99979.34;5065583;28;20006;-63
2023/05/20 08:59:03;;;;;;;;;;;;;;;26.45;46.32;99979.75;5071237;28;19977;-63
2023/05/20 09:01:29;;;;;;;;;;;;;;;26.72;46.92;99988.00;5068249;28;19921;-63
2023/05/20 09:03:54;;;;;;;;;;;;;;;26.87;45.83;99991.94;5066592;28;19912;-63
2023/05/20 09:06:20;;;;;;;;;;;;;;;27.17;46.03;99995.13;5048563;28;19959;-63
2023/05/20 09:08:47;;;;;;;;;;;;;;;27.07;44.06;99996.22;5062322;28;19912;-63
2023/05/20 09:11:13;;;;;;;;;;;;;;;27.07;44.29;99998.94;5056678;28;19916;-63
2023/05/20 09:13:38;;;;;;;;;;;;;;;26.33;45.51;100002.78;5050027;28;19963;-63
2023/05/20 09:16:03;;;;;;;;;;;;;;;26.58;46.88;99992.06;5056673;28;19923;-63
2023/05/20 09:18:29;;;;;;;;;;;;;;;26.74;45.36;100002.31;5062859;28;19940;-63
2023/05/20 09:20:54;;;;;;;;;;;;;;;26.34;45.34;99994.47;5053157;28;19927;-63
2023/05/20 09:23:24;;;;;;;;;;;;;;;26.57;46.80;99995.78;5057672;28;19955;-63
2023/05/20 09:25:50;;;;;;;;;;;;;;;26.60;45.20;100000.09;5052749;28;19917;-63
2023/05/20 09:28:16;;;;;;;;;;;;;;;26.83;45.32;99996.81;5058986;28;19955;-64
2023/05/20 09:30:42;;;;;;;;;;;;;;;27.30;46.72;99975.66;5062526;28;19951;-61
2023/05/20 09:33:08;;;;;;;;;;;;;;;26.62;44.33;99987.16;5057192;28;20598;-60
2023/05/20 09:35:34;;;;;;;;;;;;;;;27.05;45.77;99974.53;5055816;28;19916;-61
2023/05/20 09:38:00;;;;;;;;;;;;;;;27.06;45.46;99980.84;5049900;28;19962;-62
2023/05/20 09:40:26;;;;;;;;;;;;;;;27.06;45.81;99976.25;5043647;28;19920;-62
2023/05/20 09:42:57;;;;;;;;;;;;;;;27.43;47.33;99976.09;5068772;28;19915;-60
2023/05/20 09:45:23;;;;;;;;;;;;;;;27.31;43.78;99976.50;5067428;28;19943;-61
2023/05/20 09:47:52;;;;;;;;;;;;;;;27.37;44.24;99968.56;5060254;28;20403;-61
2023/05/20 09:50:20;;;;;;;;;;;;;;;27.42;44.63;99979.88;5068268;28;20351;-61
2023/05/20 09:52:45;;;;;;;;;;;;;;;27.20;45.53;99961.19;5060119;28;19913;-62
2023/05/20 09:55:11;;;;;;;;;;;;;;;26.88;45.00;99966.31;5045110;28;20296;-61
2023/05/20 09:57:36;;;;;;;;;;;;;;;26.37;45.98;99960.56;5066979;28;19916;-61
2023/05/20 10:00:07;;;;;;;;;;;;;;;26.14;48.39;99956.50;5067544;28;20387;-60
2023/05/20 10:02:33;;;;;;;;;;;;;;;25.42;47.29;99965.25;5055327;28;19917;-60
2023/05/20 10:05:00;;;;;;;;;;;;;;;25.31;48.17;99954.50;5063243;28;20452;-60
2023/05/20 10:07:49;;;;;;;;;;;;;;;25.58;48.17;99951.06;5069248;28;20330;-60
2023/05/20 10:10:14;;;;;;;;;;;;;;;25.65;49.52;99957.66;5052840;28;19923;-60
2023/05/20 10:12:45;;;;;;;;;;;;;;;25.56;47.78;99948.47;5056611;28;20623;-61
2023/05/20 10:15:29;;;;;;;;;;;;;;;26.29;50.48;99946.84;5060194;28;19969;-60
2023/05/20 10:17:54;;;;;;;;;;;;;;;26.52;46.29;99949.00;5059762;28;19923;-61
2023/05/20 10:20:20;;;;;;;;;;;;;;;27.11;46.18;99945.75;5058302;28;19916;-61
2023/05/20 10:22:53;;;;;;;;;;;;;;;27.72;44.16;99930.22;5065821;28;19912;-60
2023/05/20 10:25:28;;;;;;;;;;;;;;;27.69;43.90;99935.16;5050605;28;19921;-61
2023/05/20 10:28:10;;;;;;;;;;;;;;;27.50;44.65;99929.88;5062152;28;20313;-60
2023/05/20 10:30:35;;;;;;;;;;;;;;;27.53;42.84;99932.31;5068032;28;20372;-60
2023/05/20 10:33:05;;;;;;;;;;;;;;;27.76;42.67;99922.56;5059310;28;19920;-60
2023/05/20 10:35:30;;;;;;;;;;;;;;;27.69;43.58;99930.56;5050083;28;19916;-61
2023/05/20 10:38:09;;;;;;;;;;;;;;;27.53;43.25;99924.13;5049028;28;20433;-60
2023/05/20 10:40:35;;;;;;;;;;;;;;;27.49;43.09;99919.97;5058732;28;19916;-61
2023/05/20 10:43:08;;;;;;;;;;;;;;;27.38;42.48;99920.25;5064589;28;19916;-60
2023/05/20 10:45:36;;;;;;;;;;;;;;;27.58;43.25;99927.22;5063730;28;19912;-61
2023/05/20 10:48:01;;;;;;;;;;;;;;;27.74;44.14;99919.97;5067198;28;19912;-60
2023/05/20 10:50:47;;;;;;;;;;;;;;;28.25;42.68;99910.91;5066996;28;19919;-60
2023/05/20 10:53:13;;;;;;;;;;;;;;;28.38;44.41;99916.78;5065401;28;19967;-60
2023/05/20 10:55:39;;;;;;;;;;;;;;;28.19;41.10;99912.41;5065295;28;19916;-59
2023/05/20 10:58:05;;;;;;;;;;;;;;;28.60;41.40;99907.13;5064679;28;20247;-60
2023/05/20 11:00:34;;;;;;;;;;;;;;;29.00;41.35;99907.19;5060558;28;19923;-60
2023/05/20 11:03:00;;;;;;;;;;;;;;;29.34;41.20;99906.03;5060389;28;19940;-60
2023/05/20 11:05:25;;;;;;;;;;;;;;;28.89;39.86;99896.56;5063833;28;20335;-59
2023/05/20 11:07:59;;;;;;;;;;;;;;;28.86;41.04;99900.50;5065482;28;19912;-60
2023/05/20 11:10:24;;;;;;;;;;;;;;;28.65;40.77;99891.06;5054010;28;20271;-60
2023/05/20 11:12:49;;;;;;;;;;;;;;;28.12;40.94;99894.94;5050166;28;20037;-60
2023/05/20 11:15:15;;;;;;;;;;;;;;;28.13;41.88;99885.72;5063830;28;19931;-60
2023/05/20 11:17:50;;;;;;;;;;;;;;;28.37;41.97;99883.06;5068491;28;19919;-60
2023/05/20 11:20:15;;;;;;;;;;;;;;;28.73;40.80;99880.13;5063532;28;19920;-60
2023/05/20 11:22:41;;;;;;;;;;;;;;;29.35;39.94;99879.50;5068460;28;19920;-60
2023/05/20 11:25:06;;;;;;;;;;;;;;;29.62;39.74;99871.72;5055065;28;20383;-60
2023/05/20 11:27:32;;;;;;;;;;;;;;;30.04;39.20;99871.47;5058678;28;19912;-60
2023/05/20 11:29:57;;;;;;;;;;;;;;;29.45;39.44;99882.91;5060882;28;19913;-61
2023/05/20 11:32:23;;;;;;;;;;;;;;;29.58;40.42;99875.88;5057007;28;19916;-60
2023/05/20 11:34:50;;;;;;;;;;;;;;;29.39;40.26;99870.75;5067512;28;19913;-61
2023/05/20 11:37:16;;;;;;;;;;;;;;;29.19;40.16;99879.50;5051370;28;19916;-61
2023/05/20 11:39:41;;;;;;;;;;;;;;;29.13;39.97;99882.91;5048228;28;20364;-61
2023/05/20 11:42:07;;;;;;;;;;;;;;;28.67;40.15;99883.50;5051421;28;19908;-60
2023/05/20 11:44:32;;;;;;;;;;;;;;;29.06;40.57;99879.97;5052317;28;20518;-60
2023/05/20 11:46:59;;;;;;;;;;;;;;;28.70;40.96;99878.56;5047772;28;20016;-60
2023/05/20 11:49:24;;;;;;;;;;;;;;;28.74;41.79;99868.13;5056929;28;19968;-61
2023/05/20 11:51:50;;;;;;;;;;;;;;;29.27;40.26;99872.16;5059948;28;19916;-61
2023/05/20 11:54:15;;;;;;;;;;;;;;;29.65;39.38;99865.94;5066154;28;19916;-60
2023/05/20 11:56:44;;;;;;;;;;;;;;;29.54;38.79;99859.91;5060583;28;20362;-61
2023/05/20 11:59:09;;;;;;;;;;;;;;;29.87;40.71;99858.84;5066981;28;19926;-60
2023/05/20 12:01:39;;;;;;;;;;;;;;;29.99;38.37;99857.44;5060018;28;20398;-60
2023/05/20 12:04:05;;;;;;;;;;;;;;;30.47;37.98;99859.13;5060969;28;19916;-60
2023/05/20 12:06:30;;;;;;;;;;;;;;;30.12;37.37;99844.00;5056973;28;19912;-60
2023/05/20 12:08:56;;;;;;;;;;;;;;;30.39;38.76;99845.44;5049166;28;19912;-62
2023/05/20 12:11:21;;;;;;;;;;;;;;;30.48;38.60;99850.72;5062444;28;20020;-60
2023/05/20 12:13:46;;;;;;;;;;;;;;;29.61;38.52;99841.75;5067581;28;20489;-61
2023/05/20 12:16:12;;;;;;;;;;;;;;;29.53;40.10;99841.78;5065220;28;20361;-60
2023/05/20 12:18:37;;;;;;;;;;;;;;;29.91;38.90;99843.75;5067838;28;19912;-60